Time,TemperatureF,DewpointF,PressureIn,WindDirection,WindDirectionDegrees,WindSpeedMPH,WindSpeedGustMPH,Humidity,HourlyPrecipIn,Conditions,Clouds,dailyrainin,SoftwareType,DateUTC
2013-01-27 00:00:00,13.2,6.5,30.41,NNE,13,0.0,2.0,74,0.00,,,0.00,VWS V14.01,2013-01-27 05:00:00,
2013-01-27 00:02:00,13.2,6.5,30.41,NNE,13,0.0,0.0,74,0.00,,,0.00,VWS V14.01,2013-01-27 05:02:00,
2013-01-27 00:07:00,13.0,6.6,30.41,NNE,13,0.0,0.0,75,0.00,,,0.00,VWS V14.01,2013-01-27 05:07:00,
2013-01-27 00:12:00,13.2,6.8,30.41,NNE,13,0.0,1.0,75,0.00,,,0.00,VWS V14.01,2013-01-27 05:12:00,
2013-01-27 00:15:00,13.2,6.8,30.42,NNE,13,0.0,1.0,75,0.00,,,0.00,VWS V14.01,2013-01-27 05:15:00,
2013-01-27 00:17:00,13.2,6.8,30.42,NNE,13,0.0,0.0,75,0.00,,,0.00,VWS V14.01,2013-01-27 05:17:00,
2013-01-27 00:22:00,13.0,6.6,30.42,NNE,13,0.0,0.0,75,0.00,,,0.00,VWS V14.01,2013-01-27 05:22:00,
2013-01-27 00:27:00,13.0,6.6,30.42,NNE,13,0.0,0.0,75,0.00,,,0.00,VWS V14.01,2013-01-27 05:27:00,
2013-01-27 00:30:00,13.0,6.6,30.42,NNE,13,0.0,0.0,75,0.00,,,0.00,VWS V14.01,2013-01-27 05:30:00,
2013-01-27 00:32:00,13.0,6.6,30.42,NNE,13,1.0,2.0,75,0.00,,,0.00,VWS V14.01,2013-01-27 05:32:00,
2013-01-27 00:37:00,12.9,6.5,30.42,NNE,13,0.0,2.0,75,0.00,,,0.00,VWS V14.01,2013-01-27 05:37:00,
2013-01-27 00:42:00,12.7,6.3,30.42,NNE,13,0.0,2.0,75,0.00,,,0.00,VWS V14.01,2013-01-27 05:42:00,
2013-01-27 00:45:00,12.7,6.6,30.42,NNE,13,0.0,2.0,76,0.00,,,0.00,VWS V14.01,2013-01-27 05:45:00,
2013-01-27 00:47:00,12.7,6.6,30.42,NNE,13,0.0,0.0,76,0.00,,,0.00,VWS V14.01,2013-01-27 05:47:00,
2013-01-27 00:52:00,12.5,6.4,30.42,NNE,13,0.0,0.0,76,0.00,,,0.00,VWS V14.01,2013-01-27 05:52:00,
2013-01-27 00:57:00,12.5,6.4,30.42,NNE,13,0.0,0.0,76,0.00,,,0.00,VWS V14.01,2013-01-27 05:57:00,
2013-01-27 01:00:00,12.5,6.4,30.43,NNE,13,0.0,0.0,76,0.00,,,0.00,VWS V14.01,2013-01-27 06:00:00,
2013-01-27 01:02:00,12.5,6.7,30.43,NNE,13,0.0,0.0,77,0.00,,,0.00,VWS V14.01,2013-01-27 06:02:00,
2013-01-27 01:07:00,12.5,6.7,30.43,NNE,13,0.0,0.0,77,0.00,,,0.00,VWS V14.01,2013-01-27 06:07:00,
2013-01-27 01:12:00,12.5,6.7,30.43,NNE,13,0.0,0.0,77,0.00,,,0.00,VWS V14.01,2013-01-27 06:12:00,
2013-01-27 01:15:00,12.5,6.7,30.43,NNE,13,0.0,0.0,77,0.00,,,0.00,VWS V14.01,2013-01-27 06:15:00,
2013-01-27 01:17:00,12.5,6.7,30.43,NNE,13,0.0,0.0,77,0.00,,,0.00,VWS V14.01,2013-01-27 06:17:00,
2013-01-27 01:22:00,12.5,6.7,30.43,NNE,13,0.0,1.0,77,0.00,,,0.00,VWS V14.01,2013-01-27 06:22:00,
2013-01-27 01:27:00,12.3,6.5,30.43,NNE,13,0.0,1.0,77,0.00,,,0.00,VWS V14.01,2013-01-27 06:27:00,
2013-01-27 01:30:00,12.3,6.8,30.44,NNE,13,0.0,1.0,78,0.00,,,0.00,VWS V14.01,2013-01-27 06:30:00,
2013-01-27 01:31:00,12.3,6.8,30.44,NNE,13,0.0,0.0,78,0.00,,,0.00,VWS V14.01,2013-01-27 06:31:00,
2013-01-27 01:36:00,12.3,6.8,30.44,NNE,13,0.0,0.0,78,0.00,,,0.00,VWS V14.01,2013-01-27 06:36:00,
2013-01-27 01:41:00,12.3,6.8,30.44,NNE,13,0.0,0.0,78,0.00,,,0.00,VWS V14.01,2013-01-27 06:41:00,
2013-01-27 01:45:00,12.3,6.8,30.44,NNE,13,0.0,0.0,78,0.00,,,0.00,VWS V14.01,2013-01-27 06:45:00,
2013-01-27 01:46:00,12.3,6.8,30.44,NNE,13,0.0,0.0,78,0.00,,,0.00,VWS V14.01,2013-01-27 06:46:00,
2013-01-27 01:51:00,12.3,6.8,30.44,NNE,13,0.0,0.0,78,0.00,,,0.00,VWS V14.01,2013-01-27 06:51:00,
2013-01-27 01:56:00,12.2,6.7,30.44,NNE,13,0.0,1.0,78,0.00,,,0.00,VWS V14.01,2013-01-27 06:56:00,
2013-01-27 02:00:00,12.0,6.5,30.45,NNE,13,0.0,1.0,78,0.00,,,0.00,VWS V14.01,2013-01-27 07:00:00,
2013-01-27 02:01:00,12.0,6.5,30.45,NNE,13,0.0,0.0,78,0.00,,,0.00,VWS V14.01,2013-01-27 07:01:00,
2013-01-27 02:06:00,11.8,6.3,30.45,NNE,13,0.0,0.0,78,0.00,,,0.00,VWS V14.01,2013-01-27 07:06:00,
2013-01-27 02:13:00,11.8,6.3,30.45,NNE,13,0.0,0.0,78,0.00,,,0.00,VWS V14.01,2013-01-27 07:13:00,
2013-01-27 02:15:00,11.8,6.3,30.45,NNE,13,0.0,0.0,78,0.00,,,0.00,VWS V14.01,2013-01-27 07:15:00,
2013-01-27 02:18:00,11.7,6.2,30.45,NNE,13,0.0,0.0,78,0.00,,,0.00,VWS V14.01,2013-01-27 07:18:00,
2013-01-27 02:23:00,11.7,6.5,30.45,NNE,13,0.0,0.0,79,0.00,,,0.00,VWS V14.01,2013-01-27 07:23:00,
2013-01-27 02:28:00,11.7,6.5,30.45,NNE,13,0.0,0.0,79,0.00,,,0.00,VWS V14.01,2013-01-27 07:28:00,
2013-01-27 02:30:00,11.7,6.5,30.45,NNE,13,0.0,0.0,79,0.00,,,0.00,VWS V14.01,2013-01-27 07:30:00,
2013-01-27 02:33:00,11.7,6.5,30.45,NNE,13,0.0,0.0,79,0.00,,,0.00,VWS V14.01,2013-01-27 07:33:00,
2013-01-27 02:38:00,11.5,6.3,30.45,NNE,13,0.0,0.0,79,0.00,,,0.00,VWS V14.01,2013-01-27 07:38:00,
2013-01-27 02:43:00,11.5,6.3,30.45,NNE,13,0.0,0.0,79,0.00,,,0.00,VWS V14.01,2013-01-27 07:43:00,
2013-01-27 02:45:00,11.5,6.3,30.46,NNE,13,0.0,0.0,79,0.00,,,0.00,VWS V14.01,2013-01-27 07:45:00,
2013-01-27 02:48:00,11.3,6.1,30.46,NNE,13,0.0,0.0,79,0.00,,,0.00,VWS V14.01,2013-01-27 07:48:00,
2013-01-27 02:53:00,11.3,6.3,30.46,NNE,13,0.0,0.0,80,0.00,,,0.00,VWS V14.01,2013-01-27 07:53:00,
2013-01-27 02:58:00,11.3,6.3,30.46,NNE,13,0.0,0.0,80,0.00,,,0.00,VWS V14.01,2013-01-27 07:58:00,
2013-01-27 03:00:00,11.1,6.2,30.46,NNE,13,0.0,0.0,80,0.00,,,0.00,VWS V14.01,2013-01-27 08:00:00,
2013-01-27 03:03:00,11.1,6.2,30.46,NNE,13,0.0,0.0,80,0.00,,,0.00,VWS V14.01,2013-01-27 08:03:00,
2013-01-27 03:08:00,11.1,6.2,30.46,NNE,13,0.0,0.0,80,0.00,,,0.00,VWS V14.01,2013-01-27 08:08:00,
2013-01-27 03:13:00,11.1,6.2,30.46,NNE,13,0.0,0.0,80,0.00,,,0.00,VWS V14.01,2013-01-27 08:13:00,
2013-01-27 03:15:00,11.1,6.2,30.46,NNE,13,0.0,0.0,80,0.00,,,0.00,VWS V14.01,2013-01-27 08:15:00,
2013-01-27 03:18:00,11.1,6.2,30.46,NNE,13,0.0,0.0,80,0.00,,,0.00,VWS V14.01,2013-01-27 08:18:00,
2013-01-27 03:23:00,11.0,6.1,30.46,NNE,13,0.0,0.0,80,0.00,,,0.00,VWS V14.01,2013-01-27 08:23:00,
2013-01-27 03:28:00,11.0,6.1,30.46,NNE,13,0.0,0.0,80,0.00,,,0.00,VWS V14.01,2013-01-27 08:28:00,
2013-01-27 03:30:00,11.0,6.3,30.46,NNE,13,0.0,0.0,81,0.00,,,0.00,VWS V14.01,2013-01-27 08:30:00,
2013-01-27 03:33:00,11.0,6.3,30.46,NNE,13,0.0,0.0,81,0.00,,,0.00,VWS V14.01,2013-01-27 08:33:00,
2013-01-27 03:38:00,10.8,6.1,30.46,NNE,13,0.0,0.0,81,0.00,,,0.00,VWS V14.01,2013-01-27 08:38:00,
2013-01-27 03:43:00,10.8,6.1,30.46,NNE,13,0.0,1.0,81,0.00,,,0.00,VWS V14.01,2013-01-27 08:43:00,
2013-01-27 03:45:00,10.6,5.9,30.46,NNE,13,0.0,1.0,81,0.00,,,0.00,VWS V14.01,2013-01-27 08:45:00,
2013-01-27 03:48:00,10.6,5.9,30.46,NNE,13,0.0,0.0,81,0.00,,,0.00,VWS V14.01,2013-01-27 08:48:00,
2013-01-27 03:53:00,10.6,5.9,30.46,NNE,13,0.0,0.0,81,0.00,,,0.00,VWS V14.01,2013-01-27 08:53:00,
2013-01-27 03:57:00,10.6,5.9,30.46,NNE,13,0.0,0.0,81,0.00,,,0.00,VWS V14.01,2013-01-27 08:57:00,
2013-01-27 04:00:00,10.6,5.9,30.46,NNE,13,0.0,0.0,81,0.00,,,0.00,VWS V14.01,2013-01-27 09:00:00,
2013-01-27 04:02:00,10.6,5.9,30.46,NNE,13,0.0,0.0,81,0.00,,,0.00,VWS V14.01,2013-01-27 09:02:00,
2013-01-27 04:07:00,10.6,5.9,30.46,NNE,13,0.0,0.0,81,0.00,,,0.00,VWS V14.01,2013-01-27 09:07:00,
2013-01-27 04:12:00,10.5,5.8,30.46,NNE,13,0.0,0.0,81,0.00,,,0.00,VWS V14.01,2013-01-27 09:12:00,
2013-01-27 04:15:00,10.5,5.8,30.46,NNE,13,0.0,0.0,81,0.00,,,0.00,VWS V14.01,2013-01-27 09:15:00,
2013-01-27 04:17:00,10.5,5.8,30.46,NNE,13,0.0,0.0,81,0.00,,,0.00,VWS V14.01,2013-01-27 09:17:00,
2013-01-27 04:22:00,10.6,6.2,30.46,NNE,13,0.0,0.0,82,0.00,,,0.00,VWS V14.01,2013-01-27 09:22:00,
2013-01-27 04:27:00,10.6,6.2,30.46,NNE,13,0.0,0.0,82,0.00,,,0.00,VWS V14.01,2013-01-27 09:27:00,
2013-01-27 04:30:00,10.6,6.2,30.46,NNE,13,0.0,2.0,82,0.00,,,0.00,VWS V14.01,2013-01-27 09:30:00,
2013-01-27 04:32:00,10.5,6.1,30.46,NNE,13,0.0,1.0,82,0.00,,,0.00,VWS V14.01,2013-01-27 09:32:00,
2013-01-27 04:37:00,10.5,6.1,30.46,NNE,13,0.0,1.0,82,0.00,,,0.00,VWS V14.01,2013-01-27 09:37:00,
2013-01-27 04:42:00,10.3,5.9,30.46,NNE,13,0.0,1.0,82,0.00,,,0.00,VWS V14.01,2013-01-27 09:42:00,
2013-01-27 04:45:00,10.3,5.9,30.46,NNE,13,0.0,1.0,82,0.00,,,0.00,VWS V14.01,2013-01-27 09:45:00,
2013-01-27 04:47:00,10.3,5.9,30.46,NNE,13,0.0,0.0,82,0.00,,,0.00,VWS V14.01,2013-01-27 09:47:00,
2013-01-27 04:52:00,10.3,5.9,30.46,NNE,13,0.0,0.0,82,0.00,,,0.00,VWS V14.01,2013-01-27 09:52:00,
2013-01-27 04:57:00,10.3,5.9,30.46,NNE,13,0.0,0.0,82,0.00,,,0.00,VWS V14.01,2013-01-27 09:57:00,
2013-01-27 05:00:00,10.3,5.9,30.46,NNE,13,0.0,0.0,82,0.00,,,0.00,VWS V14.01,2013-01-27 10:00:00,
2013-01-27 05:02:00,10.3,5.9,30.46,NNE,13,0.0,0.0,82,0.00,,,0.00,VWS V14.01,2013-01-27 10:02:00,
2013-01-27 05:07:00,10.5,6.1,30.46,NNE,13,0.0,0.0,82,0.00,,,0.00,VWS V14.01,2013-01-27 10:07:00,
2013-01-27 05:12:00,10.5,6.1,30.46,NNE,13,0.0,0.0,82,0.00,,,0.00,VWS V14.01,2013-01-27 10:12:00,
2013-01-27 05:15:00,10.5,6.1,30.47,NNE,13,0.0,0.0,82,0.00,,,0.00,VWS V14.01,2013-01-27 10:15:00,
2013-01-27 05:17:00,10.5,6.1,30.47,NNE,13,0.0,0.0,82,0.00,,,0.00,VWS V14.01,2013-01-27 10:17:00,
2013-01-27 05:22:00,10.6,6.5,30.47,NNE,13,0.0,0.0,83,0.00,,,0.00,VWS V14.01,2013-01-27 10:22:00,
2013-01-27 05:27:00,10.8,6.7,30.47,NW,318,0.0,2.0,83,0.00,,,0.00,VWS V14.01,2013-01-27 10:27:00,
2013-01-27 05:30:00,10.8,6.7,30.47,NW,318,0.0,2.0,83,0.00,,,0.00,VWS V14.01,2013-01-27 10:30:00,
2013-01-27 05:32:00,11.0,6.9,30.47,NW,318,0.0,0.0,83,0.00,,,0.00,VWS V14.01,2013-01-27 10:32:00,
2013-01-27 05:37:00,11.1,7.0,30.47,NW,318,0.0,0.0,83,0.00,,,0.00,VWS V14.01,2013-01-27 10:37:00,
2013-01-27 05:42:00,11.1,7.0,30.47,NW,318,0.0,0.0,83,0.00,,,0.00,VWS V14.01,2013-01-27 10:42:00,
2013-01-27 05:45:00,11.1,7.0,30.47,NW,318,0.0,0.0,83,0.00,,,0.00,VWS V14.01,2013-01-27 10:45:00,
2013-01-27 05:47:00,11.1,6.7,30.47,NW,318,0.0,0.0,82,0.00,,,0.00,VWS V14.01,2013-01-27 10:47:00,
2013-01-27 05:52:00,11.3,6.9,30.47,NW,318,0.0,0.0,82,0.00,,,0.00,VWS V14.01,2013-01-27 10:52:00,
2013-01-27 05:57:00,11.1,6.7,30.47,NW,318,0.0,1.0,82,0.00,,,0.00,VWS V14.01,2013-01-27 10:57:00,
2013-01-27 06:00:00,11.1,6.7,30.47,NW,318,0.0,1.0,82,0.00,,,0.00,VWS V14.01,2013-01-27 11:00:00,
2013-01-27 06:02:00,11.0,6.3,30.47,NW,318,0.0,0.0,81,0.00,,,0.00,VWS V14.01,2013-01-27 11:02:00,
2013-01-27 06:07:00,10.8,6.1,30.47,NW,318,0.0,0.0,81,0.00,,,0.00,VWS V14.01,2013-01-27 11:07:00,
2013-01-27 06:12:00,10.6,5.9,30.47,NW,318,0.0,0.0,81,0.00,,,0.00,VWS V14.01,2013-01-27 11:12:00,
2013-01-27 06:15:00,10.6,5.9,30.48,NW,318,0.0,0.0,81,0.00,,,0.00,VWS V14.01,2013-01-27 11:15:00,
2013-01-27 06:17:00,10.6,5.9,30.48,NW,318,0.0,0.0,81,0.00,,,0.00,VWS V14.01,2013-01-27 11:17:00,
2013-01-27 06:22:00,10.5,5.8,30.48,NW,318,0.0,0.0,81,0.00,,,0.00,VWS V14.01,2013-01-27 11:22:00,
2013-01-27 06:27:00,10.3,5.6,30.48,NW,318,0.0,0.0,81,0.00,,,0.00,VWS V14.01,2013-01-27 11:27:00,
2013-01-27 06:30:00,10.3,5.6,30.48,NW,318,0.0,0.0,81,0.00,,,0.00,VWS V14.01,2013-01-27 11:30:00,
2013-01-27 06:32:00,10.3,5.6,30.48,NW,318,0.0,0.0,81,0.00,,,0.00,VWS V14.01,2013-01-27 11:32:00,
2013-01-27 06:37:00,10.3,5.6,30.48,NW,318,0.0,0.0,81,0.00,,,0.00,VWS V14.01,2013-01-27 11:37:00,
2013-01-27 06:42:00,10.3,5.6,30.48,NW,318,0.0,1.0,81,0.00,,,0.00,VWS V14.01,2013-01-27 11:42:00,
2013-01-27 06:45:00,10.1,5.4,30.49,NW,318,0.0,1.0,81,0.00,,,0.00,VWS V14.01,2013-01-27 11:45:00,
2013-01-27 06:47:00,10.1,5.4,30.49,NW,318,0.0,0.0,81,0.00,,,0.00,VWS V14.01,2013-01-27 11:47:00,
2013-01-27 06:52:00,10.1,5.4,30.49,NW,318,0.0,0.0,81,0.00,,,0.00,VWS V14.01,2013-01-27 11:52:00,
2013-01-27 06:57:00,10.1,5.4,30.49,NW,318,0.0,0.0,81,0.00,,,0.00,VWS V14.01,2013-01-27 11:57:00,
2013-01-27 07:00:00,10.3,5.9,30.49,NW,318,0.0,2.0,82,0.00,,,0.00,VWS V14.01,2013-01-27 12:00:00,
2013-01-27 07:02:00,10.3,5.9,30.49,NW,318,0.0,1.0,82,0.00,,,0.00,VWS V14.01,2013-01-27 12:02:00,
2013-01-27 07:07:00,10.6,6.2,30.49,NW,318,0.0,2.0,82,0.00,,,0.00,VWS V14.01,2013-01-27 12:07:00,
2013-01-27 07:12:00,11.0,6.6,30.49,WSW,252,0.0,2.0,82,0.00,,,0.00,VWS V14.01,2013-01-27 12:12:00,
2013-01-27 07:15:00,11.1,6.7,30.50,WSW,252,0.0,2.0,82,0.00,,,0.00,VWS V14.01,2013-01-27 12:15:00,
2013-01-27 07:17:00,11.0,6.6,30.50,WSW,252,0.0,0.0,82,0.00,,,0.00,VWS V14.01,2013-01-27 12:17:00,
2013-01-27 07:22:00,11.3,6.9,30.50,WNW,296,0.0,0.0,82,0.00,,,0.00,VWS V14.01,2013-01-27 12:22:00,
2013-01-27 07:27:00,11.7,7.3,30.50,WNW,293,0.0,2.0,82,0.00,,,0.00,VWS V14.01,2013-01-27 12:27:00,
2013-01-27 07:30:00,12.0,7.8,30.51,WNW,293,0.0,2.0,83,0.00,,,0.00,VWS V14.01,2013-01-27 12:30:00,
2013-01-27 07:32:00,12.3,8.1,30.51,WNW,292,0.0,2.0,83,0.00,,,0.00,VWS V14.01,2013-01-27 12:32:00,
2013-01-27 07:37:00,13.0,8.8,30.51,WNW,292,0.0,2.0,83,0.00,,,0.00,VWS V14.01,2013-01-27 12:37:00,
2013-01-27 07:42:00,13.5,9.0,30.51,WNW,292,1.0,2.0,82,0.00,,,0.00,VWS V14.01,2013-01-27 12:42:00,
2013-01-27 07:45:00,13.7,9.2,30.52,WNW,292,0.0,2.0,82,0.00,,,0.00,VWS V14.01,2013-01-27 12:45:00,
2013-01-27 07:47:00,13.7,9.0,30.52,WNW,292,1.0,2.0,81,0.00,,,0.00,VWS V14.01,2013-01-27 12:47:00,
2013-01-27 07:52:00,14.4,9.6,30.52,WNW,292,0.0,2.0,81,0.00,,,0.00,VWS V14.01,2013-01-27 12:52:00,
2013-01-27 07:57:00,14.7,9.7,30.52,WNW,292,0.0,2.0,80,0.00,,,0.00,VWS V14.01,2013-01-27 12:57:00,
2013-01-27 08:00:00,14.9,9.9,30.52,WNW,292,0.0,2.0,80,0.00,,,0.00,VWS V14.01,2013-01-27 13:00:00,
2013-01-27 08:02:00,14.9,9.6,30.52,WNW,292,0.0,1.0,79,0.00,,,0.00,VWS V14.01,2013-01-27 13:02:00,
2013-01-27 08:07:00,14.9,9.6,30.52,WNW,292,0.0,1.0,79,0.00,,,0.00,VWS V14.01,2013-01-27 13:07:00,
2013-01-27 08:12:00,15.0,9.4,30.52,WNW,292,0.0,1.0,78,0.00,,,0.00,VWS V14.01,2013-01-27 13:12:00,
2013-01-27 08:15:00,15.0,9.4,30.52,WNW,292,0.0,1.0,78,0.00,,,0.00,VWS V14.01,2013-01-27 13:15:00,
2013-01-27 08:18:00,15.0,9.4,30.52,WNW,292,0.0,0.0,78,0.00,,,0.00,VWS V14.01,2013-01-27 13:18:00,
2013-01-27 08:23:00,15.4,9.8,30.52,WNW,292,0.0,1.0,78,0.00,,,0.00,VWS V14.01,2013-01-27 13:23:00,
2013-01-27 08:28:00,16.8,10.0,30.52,WNW,292,0.0,1.0,74,0.00,,,0.00,VWS V14.01,2013-01-27 13:28:00,
2013-01-27 08:30:00,16.8,9.7,30.53,WNW,292,0.0,1.0,73,0.00,,,0.00,VWS V14.01,2013-01-27 13:30:00,
2013-01-27 08:33:00,16.0,8.9,30.53,WNW,292,0.0,0.0,73,0.00,,,0.00,VWS V14.01,2013-01-27 13:33:00,
2013-01-27 08:38:00,16.3,9.5,30.53,WNW,292,0.0,0.0,74,0.00,,,0.00,VWS V14.01,2013-01-27 13:38:00,
2013-01-27 08:43:00,17.9,10.7,30.53,WNW,292,0.0,0.0,73,0.00,,,0.00,VWS V14.01,2013-01-27 13:43:00,
2013-01-27 08:45:00,18.4,10.6,30.54,WNW,292,0.0,0.0,71,0.00,,,0.00,VWS V14.01,2013-01-27 13:45:00,
2013-01-27 08:48:00,18.3,10.2,30.54,WNW,292,0.0,0.0,70,0.00,,,0.00,VWS V14.01,2013-01-27 13:48:00,
2013-01-27 08:53:00,18.4,10.6,30.54,WNW,292,0.0,0.0,71,0.00,,,0.00,VWS V14.01,2013-01-27 13:53:00,
2013-01-27 08:58:00,18.7,10.6,30.54,WNW,292,0.0,2.0,70,0.00,,,0.00,VWS V14.01,2013-01-27 13:58:00,
2013-01-27 09:00:00,19.0,10.8,30.54,WNW,292,0.0,2.0,70,0.00,,,0.00,VWS V14.01,2013-01-27 14:00:00,
2013-01-27 09:03:00,19.4,10.9,30.54,WSW,237,4.0,4.0,69,0.00,,,0.00,VWS V14.01,2013-01-27 14:03:00,
2013-01-27 09:08:00,20.1,11.2,30.54,West,277,2.0,5.0,68,0.00,,,0.00,VWS V14.01,2013-01-27 14:08:00,
2013-01-27 09:13:00,20.6,11.4,30.54,West,272,2.0,5.0,67,0.00,,,0.00,VWS V14.01,2013-01-27 14:13:00,
2013-01-27 09:15:00,20.8,11.6,30.55,NNW,327,0.0,6.0,67,0.00,,,0.00,VWS V14.01,2013-01-27 14:15:00,
2013-01-27 09:18:00,21.1,11.9,30.55,NNW,328,0.0,0.0,67,0.00,,,0.00,VWS V14.01,2013-01-27 14:18:00,
2013-01-27 09:23:00,21.2,11.6,30.55,NNW,340,4.0,6.0,66,0.00,,,0.00,VWS V14.01,2013-01-27 14:23:00,
2013-01-27 09:28:00,21.7,12.1,30.55,WSW,242,0.0,6.0,66,0.00,,,0.00,VWS V14.01,2013-01-27 14:28:00,
2013-01-27 09:30:00,22.0,12.4,30.55,NW,322,0.0,6.0,66,0.00,,,0.00,VWS V14.01,2013-01-27 14:30:00,
2013-01-27 09:33:00,22.2,12.2,30.55,North,5,0.0,1.0,65,0.00,,,0.00,VWS V14.01,2013-01-27 14:33:00,
2013-01-27 09:38:00,22.7,12.4,30.55,West,273,0.0,6.0,64,0.00,,,0.00,VWS V14.01,2013-01-27 14:38:00,
2013-01-27 09:43:00,23.1,12.8,30.55,NW,320,0.0,6.0,64,0.00,,,0.00,VWS V14.01,2013-01-27 14:43:00,
2013-01-27 09:45:00,23.1,12.4,30.56,North,0,1.0,6.0,63,0.00,,,0.00,VWS V14.01,2013-01-27 14:45:00,
2013-01-27 09:48:00,23.1,12.0,30.56,WNW,289,0.0,5.0,62,0.00,,,0.00,VWS V14.01,2013-01-27 14:48:00,
2013-01-27 09:53:00,23.3,12.2,30.56,WNW,301,4.0,8.0,62,0.00,,,0.00,VWS V14.01,2013-01-27 14:53:00,
2013-01-27 09:58:00,23.3,11.5,30.56,SW,226,0.0,10.0,60,0.00,,,0.00,VWS V14.01,2013-01-27 14:58:00,
2013-01-27 10:00:00,23.5,12.0,30.56,WNW,292,3.0,11.0,61,0.00,,,0.00,VWS V14.01,2013-01-27 15:00:00,
2013-01-27 10:03:00,23.9,12.4,30.56,NE,34,1.0,2.0,61,0.00,,,0.00,VWS V14.01,2013-01-27 15:03:00,
2013-01-27 10:08:00,23.9,12.1,30.56,West,277,2.0,7.0,60,0.00,,,0.00,VWS V14.01,2013-01-27 15:08:00,
2013-01-27 10:13:00,24.1,12.2,30.56,WSW,252,0.0,10.0,60,0.00,,,0.00,VWS V14.01,2013-01-27 15:13:00,
2013-01-27 10:15:00,24.2,13.1,30.57,West,270,2.0,11.0,62,0.00,,,0.00,VWS V14.01,2013-01-27 15:15:00,
2013-01-27 10:18:00,24.4,12.1,30.57,North,350,0.0,5.0,59,0.00,,,0.00,VWS V14.01,2013-01-27 15:18:00,
2013-01-27 10:23:00,25.3,13.0,30.57,WNW,288,0.0,5.0,59,0.00,,,0.00,VWS V14.01,2013-01-27 15:23:00,
2013-01-27 10:28:00,25.4,12.3,30.57,West,279,5.0,11.0,57,0.00,,,0.00,VWS V14.01,2013-01-27 15:28:00,
2013-01-27 10:30:00,25.3,12.2,30.57,West,270,1.0,11.0,57,0.00,,,0.00,VWS V14.01,2013-01-27 15:30:00,
2013-01-27 10:33:00,25.6,12.9,30.57,WNW,294,0.0,7.0,58,0.00,,,0.00,VWS V14.01,2013-01-27 15:33:00,
2013-01-27 10:38:00,25.6,12.1,30.57,NW,324,6.0,14.0,56,0.00,,,0.00,VWS V14.01,2013-01-27 15:38:00,
2013-01-27 10:43:00,25.9,12.8,30.57,NNE,13,0.0,14.0,57,0.00,,,0.00,VWS V14.01,2013-01-27 15:43:00,
2013-01-27 10:45:00,26.2,12.7,30.57,NNW,338,3.0,14.0,56,0.00,,,0.00,VWS V14.01,2013-01-27 15:45:00,
2013-01-27 10:48:00,26.4,12.4,30.57,WSW,257,0.0,11.0,55,0.00,,,0.00,VWS V14.01,2013-01-27 15:48:00,
2013-01-27 10:53:00,26.0,12.1,30.57,West,274,9.0,12.0,55,0.00,,,0.00,VWS V14.01,2013-01-27 15:53:00,
2013-01-27 10:58:00,26.3,12.3,30.57,SSW,204,6.0,12.0,55,0.00,,,0.00,VWS V14.01,2013-01-27 15:58:00,
2013-01-27 11:00:00,26.4,12.0,30.56,WSW,248,5.0,12.0,54,0.00,,,0.00,VWS V14.01,2013-01-27 16:00:00,
2013-01-27 11:03:00,26.7,12.3,30.56,North,355,0.0,8.0,54,0.00,,,0.00,VWS V14.01,2013-01-27 16:03:00,
2013-01-27 11:08:00,27.0,11.7,30.56,NW,318,0.0,8.0,52,0.00,,,0.00,VWS V14.01,2013-01-27 16:08:00,
2013-01-27 11:13:00,27.3,12.0,30.56,ENE,66,0.0,9.0,52,0.00,,,0.00,VWS V14.01,2013-01-27 16:13:00,
2013-01-27 11:15:00,27.3,11.6,30.55,WNW,292,2.0,9.0,51,0.00,,,0.00,VWS V14.01,2013-01-27 16:15:00,
2013-01-27 11:18:00,27.2,11.5,30.55,NW,312,0.0,12.0,51,0.00,,,0.00,VWS V14.01,2013-01-27 16:18:00,
2013-01-27 11:23:00,27.6,11.9,30.55,NE,53,8.0,12.0,51,0.00,,,0.00,VWS V14.01,2013-01-27 16:23:00,
2013-01-27 11:28:00,27.6,11.9,30.55,NNW,346,5.0,12.0,51,0.00,,,0.00,VWS V14.01,2013-01-27 16:28:00,
2013-01-27 11:30:00,27.9,11.2,30.54,ENE,68,4.0,12.0,49,0.00,,,0.00,VWS V14.01,2013-01-27 16:30:00,
2013-01-27 11:33:00,27.8,12.5,30.54,NW,319,4.0,7.0,52,0.00,,,0.00,VWS V14.01,2013-01-27 16:33:00,
2013-01-27 11:38:00,28.4,11.7,30.54,WNW,302,0.0,10.0,49,0.00,,,0.00,VWS V14.01,2013-01-27 16:38:00,
2013-01-27 11:43:00,29.4,11.2,30.54,WNW,283,9.0,12.0,46,0.00,,,0.00,VWS V14.01,2013-01-27 16:43:00,
2013-01-27 11:45:00,29.1,11.4,30.54,West,270,4.0,16.0,47,0.00,,,0.00,VWS V14.01,2013-01-27 16:45:00,
2013-01-27 11:48:00,28.8,11.1,30.54,WNW,287,8.0,11.0,47,0.00,,,0.00,VWS V14.01,2013-01-27 16:48:00,
2013-01-27 11:53:00,28.8,11.1,30.54,NNW,330,6.0,11.0,47,0.00,,,0.00,VWS V14.01,2013-01-27 16:53:00,
2013-01-27 11:58:00,29.4,10.2,30.54,NNE,26,8.0,12.0,44,0.00,,,0.00,VWS V14.01,2013-01-27 16:58:00,
2013-01-27 12:00:00,29.6,11.4,30.54,NNE,22,4.0,12.0,46,0.00,,,0.00,VWS V14.01,2013-01-27 17:00:00,
2013-01-27 12:03:00,29.9,11.2,30.54,West,281,8.0,8.0,45,0.00,,,0.00,VWS V14.01,2013-01-27 17:03:00,
2013-01-27 12:08:00,30.0,11.2,30.54,NW,309,4.0,12.0,45,0.00,,,0.00,VWS V14.01,2013-01-27 17:08:00,
2013-01-27 12:13:00,29.9,11.2,30.54,West,259,4.0,13.0,45,0.00,,,0.00,VWS V14.01,2013-01-27 17:13:00,
2013-01-27 12:15:00,30.0,11.7,30.53,West,270,4.0,14.0,46,0.00,,,0.00,VWS V14.01,2013-01-27 17:15:00,
2013-01-27 12:18:00,30.6,10.8,30.53,WSW,246,5.0,11.0,43,0.00,,,0.00,VWS V14.01,2013-01-27 17:18:00,
2013-01-27 12:23:00,30.3,10.5,30.53,WSW,242,5.0,11.0,43,0.00,,,0.00,VWS V14.01,2013-01-27 17:23:00,
2013-01-27 12:28:00,30.6,10.2,30.53,West,281,6.0,11.0,42,0.00,,,0.00,VWS V14.01,2013-01-27 17:28:00,
2013-01-27 12:30:00,30.4,10.1,30.52,West,270,5.0,11.0,42,0.00,,,0.00,VWS V14.01,2013-01-27 17:30:00,
2013-01-27 12:33:00,30.1,9.8,30.52,NNE,16,4.0,11.0,42,0.00,,,0.00,VWS V14.01,2013-01-27 17:33:00,
2013-01-27 12:38:00,30.6,11.3,30.52,North,5,0.0,11.0,44,0.00,,,0.00,VWS V14.01,2013-01-27 17:38:00,
2013-01-27 12:43:00,31.3,10.3,30.52,NNW,346,4.0,11.0,41,0.00,,,0.00,VWS V14.01,2013-01-27 17:43:00,
2013-01-27 12:45:00,31.3,10.9,30.51,West,270,4.0,11.0,42,0.00,,,0.00,VWS V14.01,2013-01-27 17:45:00,
2013-01-27 12:48:00,31.5,10.5,30.51,WSW,238,6.0,8.0,41,0.00,,,0.00,VWS V14.01,2013-01-27 17:48:00,
2013-01-27 12:53:00,31.5,10.5,30.51,West,270,4.0,8.0,41,0.00,,,0.00,VWS V14.01,2013-01-27 17:53:00,
2013-01-27 12:58:00,32.5,11.4,30.51,WNW,296,5.0,10.0,41,0.00,,,0.00,VWS V14.01,2013-01-27 17:58:00,
2013-01-27 13:00:00,32.5,11.4,30.50,West,270,4.0,10.0,41,0.00,,,0.00,VWS V14.01,2013-01-27 18:00:00,
2013-01-27 13:03:00,31.9,10.9,30.50,WNW,294,4.0,10.0,41,0.00,,,0.00,VWS V14.01,2013-01-27 18:03:00,
2013-01-27 13:08:00,32.1,10.5,30.50,NNW,334,0.0,11.0,40,0.00,,,0.00,VWS V14.01,2013-01-27 18:08:00,
2013-01-27 13:13:00,32.4,10.8,30.50,West,265,0.0,11.0,40,0.00,,,0.00,VWS V14.01,2013-01-27 18:13:00,
2013-01-27 13:15:00,31.8,10.2,30.51,West,270,4.0,11.0,40,0.00,,,0.00,VWS V14.01,2013-01-27 18:15:00,
2013-01-27 13:18:00,31.5,10.5,30.51,WNW,301,3.0,9.0,41,0.00,,,0.00,VWS V14.01,2013-01-27 18:18:00,
2013-01-27 13:23:00,31.5,10.5,30.51,West,261,8.0,10.0,41,0.00,,,0.00,VWS V14.01,2013-01-27 18:23:00,
2013-01-27 13:28:00,31.8,10.8,30.51,WSW,246,5.0,10.0,41,0.00,,,0.00,VWS V14.01,2013-01-27 18:28:00,
2013-01-27 13:30:00,32.1,11.1,30.50,West,270,4.0,10.0,41,0.00,,,0.00,VWS V14.01,2013-01-27 18:30:00,
2013-01-27 13:33:00,31.8,10.2,30.50,NW,319,0.0,9.0,40,0.00,,,0.00,VWS V14.01,2013-01-27 18:33:00,
2013-01-27 13:38:00,32.2,10.6,30.50,WNW,299,5.0,9.0,40,0.00,,,0.00,VWS V14.01,2013-01-27 18:38:00,
2013-01-27 13:43:00,32.4,10.8,30.50,WNW,282,4.0,9.0,40,0.00,,,0.00,VWS V14.01,2013-01-27 18:43:00,
2013-01-27 13:45:00,32.5,10.3,30.50,West,270,3.0,11.0,39,0.00,,,0.00,VWS V14.01,2013-01-27 18:45:00,
2013-01-27 13:48:00,32.7,9.9,30.50,West,269,0.0,4.0,38,0.00,,,0.00,VWS V14.01,2013-01-27 18:48:00,
2013-01-27 13:53:00,32.5,9.7,30.50,West,269,4.0,11.0,38,0.00,,,0.00,VWS V14.01,2013-01-27 18:53:00,
2013-01-27 13:58:00,32.7,9.9,30.50,North,350,0.0,11.0,38,0.00,,,0.00,VWS V14.01,2013-01-27 18:58:00,
2013-01-27 14:00:00,32.8,10.0,30.50,North,0,3.0,11.0,38,0.00,,,0.00,VWS V14.01,2013-01-27 19:00:00,
2013-01-27 14:03:00,32.8,10.0,30.50,WNW,286,1.0,6.0,38,0.00,,,0.00,VWS V14.01,2013-01-27 19:03:00,
2013-01-27 14:08:00,32.2,10.0,30.50,West,265,2.0,9.0,39,0.00,,,0.00,VWS V14.01,2013-01-27 19:08:00,
2013-01-27 14:13:00,32.5,9.7,30.50,NW,317,0.0,10.0,38,0.00,,,0.00,VWS V14.01,2013-01-27 19:13:00,
2013-01-27 14:15:00,32.7,9.9,30.50,West,270,4.0,10.0,38,0.00,,,0.00,VWS V14.01,2013-01-27 19:15:00,
2013-01-27 14:18:00,32.5,9.7,30.50,West,267,6.0,10.0,38,0.00,,,0.00,VWS V14.01,2013-01-27 19:18:00,
2013-01-27 14:23:00,32.7,9.3,30.50,WNW,292,1.0,10.0,37,0.00,,,0.00,VWS V14.01,2013-01-27 19:23:00,
2013-01-27 14:28:00,33.1,9.1,30.50,West,279,0.0,10.0,36,0.00,,,0.00,VWS V14.01,2013-01-27 19:28:00,
2013-01-27 14:30:00,33.1,9.1,30.49,West,270,3.0,10.0,36,0.00,,,0.00,VWS V14.01,2013-01-27 19:30:00,
2013-01-27 14:33:00,32.4,7.8,30.49,NE,36,2.0,8.0,35,0.00,,,0.00,VWS V14.01,2013-01-27 19:33:00,
2013-01-27 14:38:00,33.5,8.8,30.49,West,267,2.0,8.0,35,0.00,,,0.00,VWS V14.01,2013-01-27 19:38:00,
2013-01-27 14:43:00,33.8,8.4,30.49,NNE,20,1.0,11.0,34,0.00,,,0.00,VWS V14.01,2013-01-27 19:43:00,
2013-01-27 14:45:00,33.7,8.3,30.49,West,270,3.0,11.0,34,0.00,,,0.00,VWS V14.01,2013-01-27 19:45:00,
2013-01-27 14:48:00,33.7,8.3,30.49,NNW,338,0.0,4.0,34,0.00,,,0.00,VWS V14.01,2013-01-27 19:48:00,
2013-01-27 14:53:00,34.1,7.3,30.49,West,265,3.0,8.0,32,0.00,,,0.00,VWS V14.01,2013-01-27 19:53:00,
2013-01-27 14:58:00,34.3,7.5,30.49,WNW,284,7.0,8.0,32,0.00,,,0.00,VWS V14.01,2013-01-27 19:58:00,
2013-01-27 15:00:00,34.1,7.3,30.50,West,270,3.0,10.0,32,0.00,,,0.00,VWS V14.01,2013-01-27 20:00:00,
2013-01-27 15:03:00,34.3,7.5,30.50,WNW,290,10.0,10.0,32,0.00,,,0.00,VWS V14.01,2013-01-27 20:03:00,
2013-01-27 15:08:00,34.0,7.3,30.50,West,259,0.0,10.0,32,0.00,,,0.00,VWS V14.01,2013-01-27 20:08:00,
2013-01-27 15:13:00,33.8,6.4,30.50,NE,50,3.0,10.0,31,0.00,,,0.00,VWS V14.01,2013-01-27 20:13:00,
2013-01-27 15:15:00,34.0,6.6,30.50,West,270,4.0,11.0,31,0.00,,,0.00,VWS V14.01,2013-01-27 20:15:00,
2013-01-27 15:18:00,34.0,6.6,30.50,WNW,284,6.0,11.0,31,0.00,,,0.00,VWS V14.01,2013-01-27 20:18:00,
2013-01-27 15:23:00,34.4,6.9,30.50,NNW,329,0.0,11.0,31,0.00,,,0.00,VWS V14.01,2013-01-27 20:23:00,
2013-01-27 15:28:00,34.7,7.2,30.50,WNW,302,0.0,11.0,31,0.00,,,0.00,VWS V14.01,2013-01-27 20:28:00,
2013-01-27 15:30:00,35.0,6.7,30.50,WNW,292,2.0,11.0,30,0.00,,,0.00,VWS V14.01,2013-01-27 20:30:00,
2013-01-27 15:33:00,35.2,6.9,30.50,WNW,294,4.0,4.0,30,0.00,,,0.00,VWS V14.01,2013-01-27 20:33:00,
2013-01-27 15:38:00,35.2,7.6,30.50,WNW,291,2.0,7.0,31,0.00,,,0.00,VWS V14.01,2013-01-27 20:38:00,
2013-01-27 15:43:00,35.0,6.7,30.50,NNE,22,0.0,7.0,30,0.00,,,0.00,VWS V14.01,2013-01-27 20:43:00,
2013-01-27 15:45:00,35.2,7.6,30.49,West,270,2.0,7.0,31,0.00,,,0.00,VWS V14.01,2013-01-27 20:45:00,
2013-01-27 15:48:00,35.3,7.0,30.49,NW,316,0.0,0.0,30,0.00,,,0.00,VWS V14.01,2013-01-27 20:48:00,
2013-01-27 15:53:00,34.9,6.6,30.49,West,277,5.0,8.0,30,0.00,,,0.00,VWS V14.01,2013-01-27 20:53:00,
2013-01-27 15:58:00,34.6,6.4,30.49,WNW,298,0.0,8.0,30,0.00,,,0.00,VWS V14.01,2013-01-27 20:58:00,
2013-01-27 16:00:00,34.7,7.2,30.50,West,270,2.0,9.0,31,0.00,,,0.00,VWS V14.01,2013-01-27 21:00:00,
2013-01-27 16:03:00,35.0,7.4,30.50,NE,55,0.0,2.0,31,0.00,,,0.00,VWS V14.01,2013-01-27 21:03:00,
2013-01-27 16:08:00,35.2,6.9,30.50,North,351,5.0,6.0,30,0.00,,,0.00,VWS V14.01,2013-01-27 21:08:00,
2013-01-27 16:13:00,34.9,7.3,30.50,North,5,2.0,8.0,31,0.00,,,0.00,VWS V14.01,2013-01-27 21:13:00,
2013-01-27 16:15:00,34.9,7.3,30.50,North,0,1.0,8.0,31,0.00,,,0.00,VWS V14.01,2013-01-27 21:15:00,
2013-01-27 16:18:00,34.9,7.3,30.50,NE,34,0.0,2.0,31,0.00,,,0.00,VWS V14.01,2013-01-27 21:18:00,
2013-01-27 16:23:00,34.7,7.9,30.50,NNE,12,0.0,2.0,32,0.00,,,0.00,VWS V14.01,2013-01-27 21:23:00,
2013-01-27 16:28:00,34.4,7.6,30.50,North,360,0.0,6.0,32,0.00,,,0.00,VWS V14.01,2013-01-27 21:28:00,
2013-01-27 16:30:00,34.3,7.5,30.51,NE,45,1.0,6.0,32,0.00,,,0.00,VWS V14.01,2013-01-27 21:30:00,
2013-01-27 16:33:00,34.0,8.6,30.51,NE,55,0.0,6.0,34,0.00,,,0.00,VWS V14.01,2013-01-27 21:33:00,
2013-01-27 16:38:00,33.7,8.3,30.51,NNE,15,0.0,7.0,34,0.00,,,0.00,VWS V14.01,2013-01-27 21:38:00,
2013-01-27 16:42:00,33.4,8.1,30.51,NNW,329,0.0,7.0,34,0.00,,,0.00,VWS V14.01,2013-01-27 21:42:00,
2013-01-27 16:45:00,33.4,8.7,30.52,North,0,1.0,8.0,35,0.00,,,0.00,VWS V14.01,2013-01-27 21:45:00,
2013-01-27 16:47:00,33.4,8.7,30.52,NNW,329,0.0,0.0,35,0.00,,,0.00,VWS V14.01,2013-01-27 21:47:00,
2013-01-27 16:52:00,33.4,8.7,30.52,NNW,329,0.0,0.0,35,0.00,,,0.00,VWS V14.01,2013-01-27 21:52:00,
2013-01-27 16:57:00,33.1,8.4,30.52,NNW,329,0.0,1.0,35,0.00,,,0.00,VWS V14.01,2013-01-27 21:57:00,
2013-01-27 17:00:00,32.8,8.2,30.51,NNW,338,0.0,1.0,35,0.00,,,0.00,VWS V14.01,2013-01-27 22:00:00,
2013-01-27 17:02:00,32.7,8.1,30.51,NNW,329,0.0,0.0,35,0.00,,,0.00,VWS V14.01,2013-01-27 22:02:00,
2013-01-27 17:07:00,32.5,9.7,30.51,NNW,329,0.0,0.0,38,0.00,,,0.00,VWS V14.01,2013-01-27 22:07:00,
2013-01-27 17:12:00,32.5,9.7,30.51,NNW,329,0.0,0.0,38,0.00,,,0.00,VWS V14.01,2013-01-27 22:12:00,
2013-01-27 17:15:00,32.4,9.6,30.51,NNW,338,0.0,0.0,38,0.00,,,0.00,VWS V14.01,2013-01-27 22:15:00,
2013-01-27 17:17:00,32.2,10.0,30.51,NNW,329,0.0,0.0,39,0.00,,,0.00,VWS V14.01,2013-01-27 22:17:00,
2013-01-27 17:22:00,31.9,9.8,30.51,NNW,329,0.0,0.0,39,0.00,,,0.00,VWS V14.01,2013-01-27 22:22:00,
2013-01-27 17:27:00,31.6,10.6,30.51,NNW,329,0.0,0.0,41,0.00,,,0.00,VWS V14.01,2013-01-27 22:27:00,
2013-01-27 17:30:00,31.5,10.5,30.51,NNW,338,0.0,0.0,41,0.00,,,0.00,VWS V14.01,2013-01-27 22:30:00,
2013-01-27 17:32:00,31.3,10.9,30.51,NNW,329,0.0,0.0,42,0.00,,,0.00,VWS V14.01,2013-01-27 22:32:00,
2013-01-27 17:37:00,31.0,11.1,30.51,NNW,329,0.0,0.0,43,0.00,,,0.00,VWS V14.01,2013-01-27 22:37:00,
2013-01-27 17:42:00,30.9,11.1,30.51,NNW,329,0.0,0.0,43,0.00,,,0.00,VWS V14.01,2013-01-27 22:42:00,
2013-01-27 17:45:00,30.7,10.9,30.52,NNW,338,0.0,0.0,43,0.00,,,0.00,VWS V14.01,2013-01-27 22:45:00,
2013-01-27 17:47:00,30.6,11.3,30.52,NNW,329,0.0,0.0,44,0.00,,,0.00,VWS V14.01,2013-01-27 22:47:00,
2013-01-27 17:52:00,30.3,11.0,30.52,NNW,329,0.0,0.0,44,0.00,,,0.00,VWS V14.01,2013-01-27 22:52:00,
2013-01-27 17:57:00,30.1,11.3,30.52,NNW,329,0.0,0.0,45,0.00,,,0.00,VWS V14.01,2013-01-27 22:57:00,
2013-01-27 18:00:00,29.9,11.2,30.53,NNW,338,0.0,0.0,45,0.00,,,0.00,VWS V14.01,2013-01-27 23:00:00,
2013-01-27 18:02:00,29.7,11.5,30.53,NNW,329,0.0,0.0,46,0.00,,,0.00,VWS V14.01,2013-01-27 23:02:00,
2013-01-27 18:07:00,29.4,11.2,30.53,NNW,329,0.0,0.0,46,0.00,,,0.00,VWS V14.01,2013-01-27 23:07:00,
2013-01-27 18:12:00,29.1,11.4,30.53,NNW,329,0.0,0.0,47,0.00,,,0.00,VWS V14.01,2013-01-27 23:12:00,
2013-01-27 18:15:00,29.0,11.8,30.53,NNW,338,0.0,0.0,48,0.00,,,0.00,VWS V14.01,2013-01-27 23:15:00,
2013-01-27 18:17:00,29.0,12.2,30.53,NNW,329,0.0,0.0,49,0.00,,,0.00,VWS V14.01,2013-01-27 23:17:00,
2013-01-27 18:22:00,28.7,12.4,30.53,NNW,329,0.0,0.0,50,0.00,,,0.00,VWS V14.01,2013-01-27 23:22:00,
2013-01-27 18:27:00,28.5,13.6,30.53,NNW,329,0.0,0.0,53,0.00,,,0.00,VWS V14.01,2013-01-27 23:27:00,
2013-01-27 18:30:00,28.4,13.5,30.53,NNW,338,0.0,0.0,53,0.00,,,0.00,VWS V14.01,2013-01-27 23:30:00,
2013-01-27 18:32:00,28.2,13.3,30.53,NNW,329,0.0,0.0,53,0.00,,,0.00,VWS V14.01,2013-01-27 23:32:00,
2013-01-27 18:37:00,28.1,13.2,30.53,NNW,329,0.0,0.0,53,0.00,,,0.00,VWS V14.01,2013-01-27 23:37:00,
2013-01-27 18:42:00,27.9,13.8,30.53,NNW,329,0.0,0.0,55,0.00,,,0.00,VWS V14.01,2013-01-27 23:42:00,
2013-01-27 18:45:00,27.8,13.8,30.53,NNW,338,0.0,0.0,55,0.00,,,0.00,VWS V14.01,2013-01-27 23:45:00,
2013-01-27 18:47:00,27.8,13.8,30.53,NNW,329,0.0,0.0,55,0.00,,,0.00,VWS V14.01,2013-01-27 23:47:00,
2013-01-27 18:52:00,27.5,13.5,30.53,NNW,329,0.0,0.0,55,0.00,,,0.00,VWS V14.01,2013-01-27 23:52:00,
2013-01-27 18:57:00,27.3,13.3,30.53,NNW,329,0.0,0.0,55,0.00,,,0.00,VWS V14.01,2013-01-27 23:57:00,
2013-01-27 19:00:00,27.2,13.6,30.52,NNW,338,0.0,0.0,56,0.00,,,0.00,VWS V14.01,2013-01-28 00:00:00,
2013-01-27 19:02:00,27.0,13.8,30.52,NNW,329,0.0,0.0,57,0.00,,,0.00,VWS V14.01,2013-01-28 00:02:00,
2013-01-27 19:07:00,26.7,13.9,30.52,NNW,329,0.0,0.0,58,0.00,,,0.00,VWS V14.01,2013-01-28 00:07:00,
2013-01-27 19:12:00,26.4,13.2,30.52,NNW,329,0.0,0.0,57,0.00,,,0.00,VWS V14.01,2013-01-28 00:12:00,
2013-01-27 19:15:00,26.4,13.2,30.52,NNW,338,0.0,0.0,57,0.00,,,0.00,VWS V14.01,2013-01-28 00:15:00,
2013-01-27 19:17:00,26.3,13.1,30.52,NNW,329,0.0,0.0,57,0.00,,,0.00,VWS V14.01,2013-01-28 00:17:00,
2013-01-27 19:22:00,26.2,13.4,30.52,NNW,329,0.0,0.0,58,0.00,,,0.00,VWS V14.01,2013-01-28 00:22:00,
2013-01-27 19:27:00,26.0,13.3,30.52,NNW,329,0.0,0.0,58,0.00,,,0.00,VWS V14.01,2013-01-28 00:27:00,
2013-01-27 19:30:00,25.9,13.2,30.51,NNW,338,0.0,0.0,58,0.00,,,0.00,VWS V14.01,2013-01-28 00:30:00,
2013-01-27 19:32:00,25.9,13.2,30.51,NNW,329,0.0,0.0,58,0.00,,,0.00,VWS V14.01,2013-01-28 00:32:00,
2013-01-27 19:37:00,25.6,13.3,30.51,NNW,329,0.0,0.0,59,0.00,,,0.00,VWS V14.01,2013-01-28 00:37:00,
2013-01-27 19:42:00,25.4,13.5,30.51,NNW,329,0.0,0.0,60,0.00,,,0.00,VWS V14.01,2013-01-28 00:42:00,
2013-01-27 19:45:00,25.4,13.8,30.51,NNW,338,0.0,0.0,61,0.00,,,0.00,VWS V14.01,2013-01-28 00:45:00,
2013-01-27 19:47:00,25.3,14.1,30.51,NNW,329,0.0,0.0,62,0.00,,,0.00,VWS V14.01,2013-01-28 00:47:00,
2013-01-27 19:52:00,25.1,13.9,30.51,NNW,329,0.0,0.0,62,0.00,,,0.00,VWS V14.01,2013-01-28 00:52:00,
2013-01-27 19:57:00,25.0,13.8,30.51,NNW,329,0.0,0.0,62,0.00,,,0.00,VWS V14.01,2013-01-28 00:57:00,
2013-01-27 20:00:00,24.8,14.0,30.51,NNW,338,0.0,0.0,63,0.00,,,0.00,VWS V14.01,2013-01-28 01:00:00,
2013-01-27 20:02:00,24.7,13.9,30.51,NNW,329,0.0,0.0,63,0.00,,,0.00,VWS V14.01,2013-01-28 01:02:00,
2013-01-27 20:07:00,24.5,13.7,30.51,NNW,329,0.0,0.0,63,0.00,,,0.00,VWS V14.01,2013-01-28 01:07:00,
2013-01-27 20:12:00,24.4,14.0,30.51,NNW,329,0.0,0.0,64,0.00,,,0.00,VWS V14.01,2013-01-28 01:12:00,
2013-01-27 20:15:00,24.4,14.0,30.51,NNW,338,0.0,0.0,64,0.00,,,0.00,VWS V14.01,2013-01-28 01:15:00,
2013-01-27 20:17:00,24.2,13.8,30.51,NNW,329,0.0,0.0,64,0.00,,,0.00,VWS V14.01,2013-01-28 01:17:00,
2013-01-27 20:22:00,24.2,13.8,30.51,NNW,329,0.0,0.0,64,0.00,,,0.00,VWS V14.01,2013-01-28 01:22:00,
2013-01-27 20:27:00,24.1,13.7,30.51,NNW,329,0.0,0.0,64,0.00,,,0.00,VWS V14.01,2013-01-28 01:27:00,
2013-01-27 20:30:00,24.1,13.7,30.53,NNW,338,0.0,0.0,64,0.00,,,0.00,VWS V14.01,2013-01-28 01:30:00,
2013-01-27 20:32:00,23.9,13.5,30.53,NNW,329,0.0,0.0,64,0.00,,,0.00,VWS V14.01,2013-01-28 01:32:00,
2013-01-27 20:37:00,23.8,13.8,30.53,NNW,329,0.0,0.0,65,0.00,,,0.00,VWS V14.01,2013-01-28 01:37:00,
2013-01-27 20:42:00,23.6,13.9,30.53,NNW,329,0.0,0.0,66,0.00,,,0.00,VWS V14.01,2013-01-28 01:42:00,
2013-01-27 20:45:00,23.6,13.9,30.53,NNW,338,0.0,0.0,66,0.00,,,0.00,VWS V14.01,2013-01-28 01:45:00,
2013-01-27 20:47:00,23.6,13.9,30.53,NNW,329,0.0,0.0,66,0.00,,,0.00,VWS V14.01,2013-01-28 01:47:00,
2013-01-27 20:52:00,23.3,14.0,30.53,NNW,329,0.0,0.0,67,0.00,,,0.00,VWS V14.01,2013-01-28 01:52:00,
2013-01-27 20:57:00,23.1,13.8,30.53,NNW,329,0.0,0.0,67,0.00,,,0.00,VWS V14.01,2013-01-28 01:57:00,
2013-01-27 21:00:00,23.0,13.7,30.53,NNW,338,0.0,0.0,67,0.00,,,0.00,VWS V14.01,2013-01-28 02:00:00,
2013-01-27 21:02:00,23.0,14.0,30.53,NNW,329,0.0,0.0,68,0.00,,,0.00,VWS V14.01,2013-01-28 02:02:00,
2013-01-27 21:07:00,22.8,13.8,30.53,NNW,329,0.0,0.0,68,0.00,,,0.00,VWS V14.01,2013-01-28 02:07:00,
2013-01-27 21:12:00,22.7,13.7,30.53,NNW,329,0.0,0.0,68,0.00,,,0.00,VWS V14.01,2013-01-28 02:12:00,
2013-01-27 21:15:00,22.7,13.7,30.53,NNW,338,0.0,0.0,68,0.00,,,0.00,VWS V14.01,2013-01-28 02:15:00,
2013-01-27 21:17:00,22.7,14.1,30.53,NNW,329,0.0,0.0,69,0.00,,,0.00,VWS V14.01,2013-01-28 02:17:00,
2013-01-27 21:22:00,22.7,14.1,30.53,NNW,329,0.0,0.0,69,0.00,,,0.00,VWS V14.01,2013-01-28 02:22:00,
2013-01-27 21:27:00,22.5,13.9,30.53,NNW,329,0.0,0.0,69,0.00,,,0.00,VWS V14.01,2013-01-28 02:27:00,
2013-01-27 21:30:00,22.5,13.9,30.52,NNW,338,0.0,0.0,69,0.00,,,0.00,VWS V14.01,2013-01-28 02:30:00,
2013-01-27 21:32:00,22.4,13.8,30.52,NNW,329,0.0,0.0,69,0.00,,,0.00,VWS V14.01,2013-01-28 02:32:00,
2013-01-27 21:37:00,22.2,13.6,30.52,NNW,329,0.0,0.0,69,0.00,,,0.00,VWS V14.01,2013-01-28 02:37:00,
2013-01-27 21:42:00,22.0,13.4,30.52,NNW,329,0.0,0.0,69,0.00,,,0.00,VWS V14.01,2013-01-28 02:42:00,
2013-01-27 21:45:00,22.0,13.4,30.51,NNW,338,0.0,1.0,69,0.00,,,0.00,VWS V14.01,2013-01-28 02:45:00,
2013-01-27 21:47:00,21.9,13.3,30.51,NNW,329,0.0,0.0,69,0.00,,,0.00,VWS V14.01,2013-01-28 02:47:00,
2013-01-27 21:52:00,21.9,13.6,30.51,NNW,329,0.0,0.0,70,0.00,,,0.00,VWS V14.01,2013-01-28 02:52:00,
2013-01-27 21:57:00,21.7,13.4,30.51,NNW,329,0.0,0.0,70,0.00,,,0.00,VWS V14.01,2013-01-28 02:57:00,
2013-01-27 22:00:00,21.7,13.4,30.51,NNW,338,0.0,0.0,70,0.00,,,0.00,VWS V14.01,2013-01-28 03:00:00,
2013-01-27 22:02:00,21.7,13.4,30.51,NNW,329,0.0,0.0,70,0.00,,,0.00,VWS V14.01,2013-01-28 03:02:00,
2013-01-27 22:07:00,21.6,13.3,30.51,NNW,329,0.0,0.0,70,0.00,,,0.00,VWS V14.01,2013-01-28 03:07:00,
2013-01-27 22:12:00,21.4,13.1,30.51,NNW,329,0.0,0.0,70,0.00,,,0.00,VWS V14.01,2013-01-28 03:12:00,
2013-01-27 22:15:00,21.4,13.5,30.50,NNW,338,0.0,0.0,71,0.00,,,0.00,VWS V14.01,2013-01-28 03:15:00,
2013-01-27 22:17:00,21.4,13.5,30.50,NNW,329,0.0,0.0,71,0.00,,,0.00,VWS V14.01,2013-01-28 03:17:00,
2013-01-27 22:22:00,21.2,13.3,30.50,NNW,329,0.0,0.0,71,0.00,,,0.00,VWS V14.01,2013-01-28 03:22:00,
2013-01-27 22:27:00,21.2,13.3,30.50,NNW,329,0.0,0.0,71,0.00,,,0.00,VWS V14.01,2013-01-28 03:27:00,
2013-01-27 22:30:00,21.1,13.2,30.51,NNW,338,0.0,0.0,71,0.00,,,0.00,VWS V14.01,2013-01-28 03:30:00,
2013-01-27 22:32:00,21.1,13.2,30.51,NNW,329,0.0,0.0,71,0.00,,,0.00,VWS V14.01,2013-01-28 03:32:00,
2013-01-27 22:37:00,21.1,13.2,30.51,NNW,329,0.0,0.0,71,0.00,,,0.00,VWS V14.01,2013-01-28 03:37:00,
2013-01-27 22:42:00,20.9,13.0,30.51,NNW,329,0.0,0.0,71,0.00,,,0.00,VWS V14.01,2013-01-28 03:42:00,
2013-01-27 22:45:00,20.9,13.0,30.50,NNW,338,0.0,0.0,71,0.00,,,0.00,VWS V14.01,2013-01-28 03:45:00,
2013-01-27 22:47:00,20.9,13.0,30.50,NNW,329,0.0,0.0,71,0.00,,,0.00,VWS V14.01,2013-01-28 03:47:00,
2013-01-27 22:52:00,20.8,13.2,30.50,NNW,329,0.0,0.0,72,0.00,,,0.00,VWS V14.01,2013-01-28 03:52:00,
2013-01-27 22:57:00,20.8,13.2,30.50,NNW,329,0.0,0.0,72,0.00,,,0.00,VWS V14.01,2013-01-28 03:57:00,
2013-01-27 23:00:00,20.6,13.0,30.50,NNW,338,0.0,0.0,72,0.00,,,0.00,VWS V14.01,2013-01-28 04:00:00,
2013-01-27 23:02:00,20.6,13.0,30.50,NNW,329,0.0,0.0,72,0.00,,,0.00,VWS V14.01,2013-01-28 04:02:00,
2013-01-27 23:07:00,20.5,13.2,30.50,NNW,329,0.0,0.0,73,0.00,,,0.00,VWS V14.01,2013-01-28 04:07:00,
2013-01-27 23:12:00,20.5,13.2,30.50,NNW,329,0.0,0.0,73,0.00,,,0.00,VWS V14.01,2013-01-28 04:12:00,
2013-01-27 23:15:00,20.3,13.0,30.50,NNW,338,0.0,0.0,73,0.00,,,0.00,VWS V14.01,2013-01-28 04:15:00,
2013-01-27 23:17:00,20.3,13.0,30.50,NNW,329,0.0,0.0,73,0.00,,,0.00,VWS V14.01,2013-01-28 04:17:00,
2013-01-27 23:22:00,20.3,13.0,30.50,NNW,329,0.0,0.0,73,0.00,,,0.00,VWS V14.01,2013-01-28 04:22:00,
2013-01-27 23:27:00,20.1,13.2,30.50,NNW,329,0.0,0.0,74,0.00,,,0.00,VWS V14.01,2013-01-28 04:27:00,
2013-01-27 23:30:00,20.1,13.2,30.51,NNW,338,0.0,0.0,74,0.00,,,0.00,VWS V14.01,2013-01-28 04:30:00,
2013-01-27 23:32:00,20.0,13.1,30.51,NNW,329,0.0,0.0,74,0.00,,,0.00,VWS V14.01,2013-01-28 04:32:00,
2013-01-27 23:37:00,20.0,13.1,30.51,NNW,329,0.0,0.0,74,0.00,,,0.00,VWS V14.01,2013-01-28 04:37:00,
2013-01-27 23:42:00,20.0,13.1,30.51,NNW,329,0.0,0.0,74,0.00,,,0.00,VWS V14.01,2013-01-28 04:42:00,
2013-01-27 23:45:00,19.8,12.9,30.51,NNW,338,0.0,0.0,74,0.00,,,0.00,VWS V14.01,2013-01-28 04:45:00,
2013-01-27 23:47:00,19.8,12.9,30.51,NNW,329,0.0,0.0,74,0.00,,,0.00,VWS V14.01,2013-01-28 04:47:00,
2013-01-27 23:52:00,19.8,12.9,30.51,NNW,329,0.0,0.0,74,0.00,,,0.00,VWS V14.01,2013-01-28 04:52:00,
2013-01-27 23:57:00,19.7,13.1,30.51,NNW,329,0.0,0.0,75,0.00,,,0.00,VWS V14.01,2013-01-28 04:57:00,